Terminal Aerodrome Forecast
Issued by NWS Billings, MT

Home | Current Version | Previous Version | Graphics & Text | Print | Product List | Glossary On
Versions: 1 2 3 4 5 6 7 8 9 10 11 12 13 14 15 16 17 18 19 20 21 22 23 24 25 26 27 28 29 30 31 32
000
FTUS45 KBYZ 051930 AAA
TAFMLS
TAF AMD
KMLS 051930Z 0520/0618 32025G35KT P6SM VCSH SCT020 OVC050
      TEMPO 0520/0523 3SM -SHSN BKN020
     FM052300 32016G26KT P6SM VCSH SCT040 BKN080
     FM060200 32015KT P6SM BKN080=

USA.gov is the U.S. government's official web portal to all federal, state and local government web resources and services.